sensor_id;sensor_type;location;lat;lon;timestamp;P1;durP1;ratioP1;P2;durP2;ratioP2
49626;SDS011;35527;54.616;39.786;2023-04-24T00:00:50;13.90;;;5.95;;
49626;SDS011;35527;54.616;39.786;2023-04-24T00:03:58;8.60;;;3.45;;
49626;SDS011;35527;54.616;39.786;2023-04-24T00:07:03;7.93;;;3.65;;
49626;SDS011;35527;54.616;39.786;2023-04-24T00:10:06;24.17;;;8.60;;
49626;SDS011;35527;54.616;39.786;2023-04-24T00:13:12;14.07;;;6.20;;
49626;SDS011;35527;54.616;39.786;2023-04-24T00:16:17;10.95;;;4.68;;
49626;SDS011;35527;54.616;39.786;2023-04-24T00:19:20;13.35;;;4.95;;
49626;SDS011;35527;54.616;39.786;2023-04-24T00:22:24;9.60;;;5.50;;
49626;SDS011;35527;54.616;39.786;2023-04-24T00:25:28;9.30;;;4.93;;
49626;SDS011;35527;54.616;39.786;2023-04-24T00:28:34;10.38;;;4.65;;
49626;SDS011;35527;54.616;39.786;2023-04-24T00:31:38;10.15;;;5.68;;
49626;SDS011;35527;54.616;39.786;2023-04-24T00:34:43;72.75;;;30.65;;
49626;SDS011;35527;54.616;39.786;2023-04-24T00:37:46;52.50;;;20.90;;
49626;SDS011;35527;54.616;39.786;2023-04-24T00:40:56;16.95;;;8.73;;
49626;SDS011;35527;54.616;39.786;2023-04-24T00:43:59;66.40;;;29.27;;
49626;SDS011;35527;54.616;39.786;2023-04-24T00:47:02;55.08;;;24.00;;
49626;SDS011;35527;54.616;39.786;2023-04-24T00:50:06;45.60;;;20.92;;
49626;SDS011;35527;54.616;39.786;2023-04-24T00:53:10;43.40;;;20.50;;
49626;SDS011;35527;54.616;39.786;2023-04-24T00:56:16;45.97;;;21.17;;
49626;SDS011;35527;54.616;39.786;2023-04-24T00:59:19;62.75;;;29.08;;
49626;SDS011;35527;54.616;39.786;2023-04-24T01:02:25;56.13;;;25.98;;
49626;SDS011;35527;54.616;39.786;2023-04-24T01:05:31;79.57;;;34.38;;
49626;SDS011;35527;54.616;39.786;2023-04-24T01:08:36;77.43;;;19.43;;
49626;SDS011;35527;54.616;39.786;2023-04-24T01:11:41;104.43;;;45.10;;
49626;SDS011;35527;54.616;39.786;2023-04-24T01:14:46;122.72;;;49.72;;
49626;SDS011;35527;54.616;39.786;2023-04-24T01:17:57;100.00;;;43.58;;
49626;SDS011;35527;54.616;39.786;2023-04-24T01:20:59;99.97;;;42.63;;
49626;SDS011;35527;54.616;39.786;2023-04-24T01:24:07;100.38;;;42.45;;
49626;SDS011;35527;54.616;39.786;2023-04-24T01:27:10;100.65;;;42.08;;
49626;SDS011;35527;54.616;39.786;2023-04-24T01:30:20;84.57;;;36.47;;
49626;SDS011;35527;54.616;39.786;2023-04-24T01:33:25;73.95;;;31.75;;
49626;SDS011;35527;54.616;39.786;2023-04-24T01:36:29;72.78;;;32.80;;
49626;SDS011;35527;54.616;39.786;2023-04-24T01:39:33;71.65;;;30.38;;
49626;SDS011;35527;54.616;39.786;2023-04-24T01:42:38;64.97;;;29.75;;
49626;SDS011;35527;54.616;39.786;2023-04-24T01:45:40;69.40;;;29.40;;
49626;SDS011;35527;54.616;39.786;2023-04-24T01:48:45;56.42;;;25.70;;
49626;SDS011;35527;54.616;39.786;2023-04-24T01:51:49;69.80;;;30.98;;
49626;SDS011;35527;54.616;39.786;2023-04-24T01:54:52;50.90;;;18.27;;
49626;SDS011;35527;54.616;39.786;2023-04-24T01:57:55;84.32;;;36.95;;
49626;SDS011;35527;54.616;39.786;2023-04-24T02:01:02;96.28;;;42.22;;
49626;SDS011;35527;54.616;39.786;2023-04-24T02:04:06;77.72;;;36.63;;
49626;SDS011;35527;54.616;39.786;2023-04-24T02:07:11;67.00;;;29.88;;
49626;SDS011;35527;54.616;39.786;2023-04-24T02:10:17;60.33;;;28.17;;
49626;SDS011;35527;54.616;39.786;2023-04-24T02:13:20;59.90;;;28.35;;
49626;SDS011;35527;54.616;39.786;2023-04-24T02:16:24;47.70;;;23.42;;
49626;SDS011;35527;54.616;39.786;2023-04-24T02:19:28;56.08;;;16.00;;
49626;SDS011;35527;54.616;39.786;2023-04-24T02:22:31;85.00;;;36.00;;
49626;SDS011;35527;54.616;39.786;2023-04-24T02:25:36;84.85;;;38.67;;
49626;SDS011;35527;54.616;39.786;2023-04-24T02:28:41;90.75;;;39.08;;
49626;SDS011;35527;54.616;39.786;2023-04-24T02:31:45;103.05;;;44.72;;
49626;SDS011;35527;54.616;39.786;2023-04-24T02:34:50;60.35;;;29.98;;
49626;SDS011;35527;54.616;39.786;2023-04-24T02:37:54;48.20;;;23.20;;
49626;SDS011;35527;54.616;39.786;2023-04-24T02:40:58;49.25;;;22.45;;
49626;SDS011;35527;54.616;39.786;2023-04-24T02:44:03;46.50;;;22.27;;
49626;SDS011;35527;54.616;39.786;2023-04-24T02:47:08;55.20;;;26.65;;
49626;SDS011;35527;54.616;39.786;2023-04-24T02:50:11;50.95;;;22.33;;
49626;SDS011;35527;54.616;39.786;2023-04-24T02:53:17;37.17;;;18.35;;
49626;SDS011;35527;54.616;39.786;2023-04-24T02:56:21;38.25;;;17.77;;
49626;SDS011;35527;54.616;39.786;2023-04-24T02:59:24;31.15;;;15.48;;
49626;SDS011;35527;54.616;39.786;2023-04-24T03:02:30;31.73;;;15.90;;
49626;SDS011;35527;54.616;39.786;2023-04-24T03:05:34;27.05;;;13.10;;
49626;SDS011;35527;54.616;39.786;2023-04-24T03:08:43;12.98;;;6.88;;
49626;SDS011;35527;54.616;39.786;2023-04-24T03:11:46;12.77;;;6.88;;
49626;SDS011;35527;54.616;39.786;2023-04-24T03:14:51;12.05;;;6.43;;
49626;SDS011;35527;54.616;39.786;2023-04-24T03:17:55;12.45;;;6.78;;
49626;SDS011;35527;54.616;39.786;2023-04-24T03:21:00;17.05;;;7.32;;
49626;SDS011;35527;54.616;39.786;2023-04-24T03:24:04;13.35;;;6.85;;
49626;SDS011;35527;54.616;39.786;2023-04-24T03:27:07;12.90;;;6.75;;
49626;SDS011;35527;54.616;39.786;2023-04-24T03:30:52;14.10;;;6.30;;
49626;SDS011;35527;54.616;39.786;2023-04-24T03:34:07;14.27;;;6.63;;
49626;SDS011;35527;54.616;39.786;2023-04-24T03:37:10;13.82;;;7.35;;
49626;SDS011;35527;54.616;39.786;2023-04-24T03:40:17;12.73;;;6.68;;
49626;SDS011;35527;54.616;39.786;2023-04-24T03:43:21;14.43;;;8.13;;
49626;SDS011;35527;54.616;39.786;2023-04-24T03:46:25;15.60;;;9.90;;
49626;SDS011;35527;54.616;39.786;2023-04-24T03:49:33;19.15;;;9.15;;
49626;SDS011;35527;54.616;39.786;2023-04-24T03:52:39;22.92;;;9.75;;
49626;SDS011;35527;54.616;39.786;2023-04-24T03:55:43;18.88;;;9.88;;
49626;SDS011;35527;54.616;39.786;2023-04-24T03:58:49;17.50;;;10.45;;
49626;SDS011;35527;54.616;39.786;2023-04-24T04:01:52;14.90;;;10.18;;
49626;SDS011;35527;54.616;39.786;2023-04-24T04:05:00;14.93;;;8.73;;
49626;SDS011;35527;54.616;39.786;2023-04-24T04:08:08;15.88;;;8.15;;
49626;SDS011;35527;54.616;39.786;2023-04-24T04:11:14;15.27;;;7.65;;
49626;SDS011;35527;54.616;39.786;2023-04-24T04:14:29;22.10;;;8.13;;
49626;SDS011;35527;54.616;39.786;2023-04-24T04:20:47;22.13;;;8.88;;
49626;SDS011;35527;54.616;39.786;2023-04-24T04:23:52;18.90;;;7.05;;
49626;SDS011;35527;54.616;39.786;2023-04-24T04:27:04;20.45;;;7.28;;
49626;SDS011;35527;54.616;39.786;2023-04-24T04:30:19;18.65;;;7.88;;
49626;SDS011;35527;54.616;39.786;2023-04-24T04:33:33;22.08;;;7.93;;
49626;SDS011;35527;54.616;39.786;2023-04-24T04:36:42;18.08;;;7.05;;
49626;SDS011;35527;54.616;39.786;2023-04-24T04:40:06;18.98;;;7.43;;
49626;SDS011;35527;54.616;39.786;2023-04-24T04:43:25;33.88;;;8.90;;
49626;SDS011;35527;54.616;39.786;2023-04-24T04:46:32;42.05;;;10.10;;
49626;SDS011;35527;54.616;39.786;2023-04-24T04:49:56;27.35;;;8.15;;
49626;SDS011;35527;54.616;39.786;2023-04-24T04:53:01;20.48;;;7.45;;
49626;SDS011;35527;54.616;39.786;2023-04-24T04:56:08;25.30;;;7.93;;
49626;SDS011;35527;54.616;39.786;2023-04-24T04:59:16;30.88;;;8.35;;
49626;SDS011;35527;54.616;39.786;2023-04-24T05:02:23;22.45;;;7.63;;
49626;SDS011;35527;54.616;39.786;2023-04-24T05:05:27;19.33;;;7.82;;
49626;SDS011;35527;54.616;39.786;2023-04-24T05:08:34;24.77;;;8.60;;
49626;SDS011;35527;54.616;39.786;2023-04-24T05:11:42;26.33;;;9.35;;
49626;SDS011;35527;54.616;39.786;2023-04-24T05:14:57;30.00;;;10.95;;
49626;SDS011;35527;54.616;39.786;2023-04-24T05:18:04;43.72;;;13.60;;
49626;SDS011;35527;54.616;39.786;2023-04-24T05:21:10;34.90;;;14.50;;
49626;SDS011;35527;54.616;39.786;2023-04-24T05:24:23;32.42;;;14.13;;
49626;SDS011;35527;54.616;39.786;2023-04-24T05:27:57;28.17;;;12.07;;
49626;SDS011;35527;54.616;39.786;2023-04-24T05:30:59;16.30;;;7.40;;
49626;SDS011;35527;54.616;39.786;2023-04-24T05:34:12;13.38;;;6.18;;
49626;SDS011;35527;54.616;39.786;2023-04-24T05:37:20;15.02;;;6.88;;
49626;SDS011;35527;54.616;39.786;2023-04-24T05:40:32;17.30;;;5.90;;
49626;SDS011;35527;54.616;39.786;2023-04-24T05:43:37;17.38;;;7.13;;
49626;SDS011;35527;54.616;39.786;2023-04-24T05:46:45;16.80;;;7.32;;
49626;SDS011;35527;54.616;39.786;2023-04-24T05:49:50;16.95;;;6.35;;
49626;SDS011;35527;54.616;39.786;2023-04-24T05:52:53;13.25;;;5.30;;
49626;SDS011;35527;54.616;39.786;2023-04-24T05:55:59;15.60;;;5.53;;
49626;SDS011;35527;54.616;39.786;2023-04-24T05:59:02;9.85;;;3.83;;
49626;SDS011;35527;54.616;39.786;2023-04-24T06:02:05;9.65;;;4.13;;
49626;SDS011;35527;54.616;39.786;2023-04-24T06:05:10;10.52;;;4.15;;
49626;SDS011;35527;54.616;39.786;2023-04-24T06:08:13;12.03;;;4.50;;
49626;SDS011;35527;54.616;39.786;2023-04-24T06:14:21;8.05;;;3.45;;
49626;SDS011;35527;54.616;39.786;2023-04-24T06:17:50;9.30;;;3.88;;
49626;SDS011;35527;54.616;39.786;2023-04-24T06:20:55;8.90;;;3.95;;
49626;SDS011;35527;54.616;39.786;2023-04-24T06:24:03;8.38;;;3.70;;
49626;SDS011;35527;54.616;39.786;2023-04-24T06:27:10;11.98;;;3.80;;
49626;SDS011;35527;54.616;39.786;2023-04-24T06:30:15;14.80;;;3.90;;
49626;SDS011;35527;54.616;39.786;2023-04-24T06:33:19;8.47;;;4.00;;
49626;SDS011;35527;54.616;39.786;2023-04-24T06:36:24;8.30;;;3.72;;
49626;SDS011;35527;54.616;39.786;2023-04-24T06:39:29;11.05;;;4.90;;
49626;SDS011;35527;54.616;39.786;2023-04-24T06:45:34;10.32;;;3.80;;
49626;SDS011;35527;54.616;39.786;2023-04-24T06:48:39;13.00;;;4.55;;
49626;SDS011;35527;54.616;39.786;2023-04-24T06:51:41;15.65;;;5.32;;
49626;SDS011;35527;54.616;39.786;2023-04-24T06:54:45;12.20;;;5.47;;
49626;SDS011;35527;54.616;39.786;2023-04-24T06:57:49;12.95;;;4.18;;
49626;SDS011;35527;54.616;39.786;2023-04-24T07:00:55;12.23;;;3.70;;
49626;SDS011;35527;54.616;39.786;2023-04-24T07:03:58;7.78;;;2.70;;
49626;SDS011;35527;54.616;39.786;2023-04-24T07:07:02;6.05;;;2.58;;
49626;SDS011;35527;54.616;39.786;2023-04-24T07:10:05;9.18;;;3.15;;
49626;SDS011;35527;54.616;39.786;2023-04-24T07:13:11;8.70;;;3.30;;
49626;SDS011;35527;54.616;39.786;2023-04-24T07:16:16;8.70;;;2.67;;
49626;SDS011;35527;54.616;39.786;2023-04-24T07:19:22;7.38;;;2.90;;
49626;SDS011;35527;54.616;39.786;2023-04-24T07:22:25;9.70;;;4.07;;
49626;SDS011;35527;54.616;39.786;2023-04-24T07:25:32;11.18;;;3.42;;
49626;SDS011;35527;54.616;39.786;2023-04-24T07:28:36;9.02;;;2.50;;
49626;SDS011;35527;54.616;39.786;2023-04-24T07:31:42;6.28;;;2.67;;
49626;SDS011;35527;54.616;39.786;2023-04-24T07:34:44;7.63;;;3.80;;
49626;SDS011;35527;54.616;39.786;2023-04-24T07:37:48;6.43;;;2.72;;
49626;SDS011;35527;54.616;39.786;2023-04-24T07:40:50;7.45;;;3.40;;
49626;SDS011;35527;54.616;39.786;2023-04-24T07:43:53;8.10;;;2.90;;
49626;SDS011;35527;54.616;39.786;2023-04-24T07:46:57;7.32;;;3.10;;
49626;SDS011;35527;54.616;39.786;2023-04-24T07:53:04;5.40;;;2.45;;
49626;SDS011;35527;54.616;39.786;2023-04-24T07:56:08;8.35;;;3.20;;
49626;SDS011;35527;54.616;39.786;2023-04-24T07:59:12;9.95;;;3.63;;
49626;SDS011;35527;54.616;39.786;2023-04-24T08:02:15;7.63;;;3.13;;
49626;SDS011;35527;54.616;39.786;2023-04-24T08:05:19;8.80;;;2.95;;
49626;SDS011;35527;54.616;39.786;2023-04-24T08:08:22;7.70;;;2.60;;
49626;SDS011;35527;54.616;39.786;2023-04-24T08:11:28;9.00;;;3.83;;
49626;SDS011;35527;54.616;39.786;2023-04-24T08:14:31;8.23;;;3.43;;
49626;SDS011;35527;54.616;39.786;2023-04-24T08:17:35;7.15;;;3.17;;
49626;SDS011;35527;54.616;39.786;2023-04-24T08:20:39;7.10;;;3.33;;
49626;SDS011;35527;54.616;39.786;2023-04-24T08:23:43;8.60;;;2.90;;
49626;SDS011;35527;54.616;39.786;2023-04-24T08:26:46;9.88;;;3.38;;
49626;SDS011;35527;54.616;39.786;2023-04-24T08:29:52;9.57;;;3.15;;
49626;SDS011;35527;54.616;39.786;2023-04-24T08:32:57;7.90;;;3.75;;
49626;SDS011;35527;54.616;39.786;2023-04-24T08:36:04;7.25;;;3.75;;
49626;SDS011;35527;54.616;39.786;2023-04-24T08:39:09;9.07;;;3.67;;
49626;SDS011;35527;54.616;39.786;2023-04-24T08:42:12;9.32;;;3.92;;
49626;SDS011;35527;54.616;39.786;2023-04-24T08:45:18;6.03;;;3.65;;
49626;SDS011;35527;54.616;39.786;2023-04-24T08:48:24;8.75;;;3.85;;
49626;SDS011;35527;54.616;39.786;2023-04-24T08:51:32;13.65;;;3.70;;
49626;SDS011;35527;54.616;39.786;2023-04-24T08:54:35;9.23;;;3.28;;
49626;SDS011;35527;54.616;39.786;2023-04-24T08:57:39;7.03;;;3.40;;
49626;SDS011;35527;54.616;39.786;2023-04-24T09:00:43;6.68;;;3.03;;
49626;SDS011;35527;54.616;39.786;2023-04-24T09:03:49;5.72;;;3.17;;
49626;SDS011;35527;54.616;39.786;2023-04-24T09:06:56;8.15;;;3.40;;
49626;SDS011;35527;54.616;39.786;2023-04-24T09:10:01;8.60;;;3.63;;
49626;SDS011;35527;54.616;39.786;2023-04-24T09:13:06;12.77;;;4.30;;
49626;SDS011;35527;54.616;39.786;2023-04-24T09:16:13;8.13;;;3.58;;
49626;SDS011;35527;54.616;39.786;2023-04-24T09:19:19;9.18;;;3.75;;
49626;SDS011;35527;54.616;39.786;2023-04-24T09:22:27;7.90;;;3.70;;
49626;SDS011;35527;54.616;39.786;2023-04-24T09:25:34;10.18;;;3.75;;
49626;SDS011;35527;54.616;39.786;2023-04-24T09:28:39;8.82;;;3.95;;
49626;SDS011;35527;54.616;39.786;2023-04-24T09:34:49;8.18;;;3.20;;
49626;SDS011;35527;54.616;39.786;2023-04-24T09:37:54;10.75;;;3.42;;
49626;SDS011;35527;54.616;39.786;2023-04-24T09:41:01;7.43;;;3.70;;
49626;SDS011;35527;54.616;39.786;2023-04-24T09:44:13;8.02;;;3.53;;
49626;SDS011;35527;54.616;39.786;2023-04-24T09:47:18;7.38;;;3.75;;
49626;SDS011;35527;54.616;39.786;2023-04-24T09:50:24;6.78;;;3.40;;
49626;SDS011;35527;54.616;39.786;2023-04-24T09:53:27;8.32;;;4.20;;
49626;SDS011;35527;54.616;39.786;2023-04-24T09:56:34;8.45;;;3.80;;
49626;SDS011;35527;54.616;39.786;2023-04-24T09:59:43;7.00;;;3.55;;
49626;SDS011;35527;54.616;39.786;2023-04-24T10:03:06;7.82;;;3.50;;
49626;SDS011;35527;54.616;39.786;2023-04-24T10:06:11;11.20;;;5.40;;
49626;SDS011;35527;54.616;39.786;2023-04-24T10:09:15;10.98;;;3.63;;
49626;SDS011;35527;54.616;39.786;2023-04-24T10:12:23;9.15;;;3.35;;
49626;SDS011;35527;54.616;39.786;2023-04-24T10:15:27;8.15;;;3.67;;
49626;SDS011;35527;54.616;39.786;2023-04-24T10:21:35;8.23;;;3.30;;
49626;SDS011;35527;54.616;39.786;2023-04-24T10:24:41;7.53;;;2.90;;
49626;SDS011;35527;54.616;39.786;2023-04-24T10:27:46;7.55;;;3.20;;
49626;SDS011;35527;54.616;39.786;2023-04-24T10:30:51;10.07;;;3.40;;
49626;SDS011;35527;54.616;39.786;2023-04-24T10:33:58;10.45;;;3.10;;
49626;SDS011;35527;54.616;39.786;2023-04-24T10:40:06;11.52;;;3.92;;
49626;SDS011;35527;54.616;39.786;2023-04-24T10:43:15;17.75;;;4.72;;
49626;SDS011;35527;54.616;39.786;2023-04-24T10:46:20;11.50;;;3.72;;
49626;SDS011;35527;54.616;39.786;2023-04-24T10:49:28;9.90;;;3.47;;
49626;SDS011;35527;54.616;39.786;2023-04-24T10:52:44;10.07;;;3.80;;
49626;SDS011;35527;54.616;39.786;2023-04-24T10:55:51;8.13;;;3.50;;
49626;SDS011;35527;54.616;39.786;2023-04-24T10:59:00;7.47;;;4.20;;
49626;SDS011;35527;54.616;39.786;2023-04-24T11:02:04;9.60;;;4.53;;
49626;SDS011;35527;54.616;39.786;2023-04-24T11:05:17;6.55;;;3.40;;
49626;SDS011;35527;54.616;39.786;2023-04-24T11:11:34;6.85;;;3.30;;
49626;SDS011;35527;54.616;39.786;2023-04-24T11:18:03;6.15;;;3.08;;
49626;SDS011;35527;54.616;39.786;2023-04-24T11:21:15;10.25;;;3.30;;
49626;SDS011;35527;54.616;39.786;2023-04-24T11:24:48;6.35;;;3.60;;
49626;SDS011;35527;54.616;39.786;2023-04-24T11:28:04;8.50;;;3.20;;
49626;SDS011;35527;54.616;39.786;2023-04-24T11:34:55;9.10;;;4.43;;
49626;SDS011;35527;54.616;39.786;2023-04-24T11:38:03;10.52;;;4.10;;
49626;SDS011;35527;54.616;39.786;2023-04-24T11:41:11;8.75;;;4.32;;
49626;SDS011;35527;54.616;39.786;2023-04-24T11:44:16;7.37;;;4.23;;
49626;SDS011;35527;54.616;39.786;2023-04-24T11:47:31;9.07;;;4.60;;
49626;SDS011;35527;54.616;39.786;2023-04-24T11:50:46;7.57;;;3.40;;
49626;SDS011;35527;54.616;39.786;2023-04-24T11:53:50;8.85;;;3.47;;
49626;SDS011;35527;54.616;39.786;2023-04-24T11:56:59;7.25;;;3.15;;
49626;SDS011;35527;54.616;39.786;2023-04-24T12:00:03;6.88;;;3.17;;
49626;SDS011;35527;54.616;39.786;2023-04-24T12:03:14;7.28;;;3.08;;
49626;SDS011;35527;54.616;39.786;2023-04-24T12:06:17;6.50;;;3.15;;
49626;SDS011;35527;54.616;39.786;2023-04-24T12:09:22;8.52;;;3.58;;
49626;SDS011;35527;54.616;39.786;2023-04-24T12:12:25;9.98;;;3.60;;
49626;SDS011;35527;54.616;39.786;2023-04-24T12:15:32;7.15;;;2.83;;
49626;SDS011;35527;54.616;39.786;2023-04-24T12:18:40;5.40;;;2.80;;
49626;SDS011;35527;54.616;39.786;2023-04-24T12:21:44;8.75;;;3.55;;
49626;SDS011;35527;54.616;39.786;2023-04-24T12:25:05;8.73;;;2.75;;
49626;SDS011;35527;54.616;39.786;2023-04-24T12:28:11;9.30;;;3.03;;
49626;SDS011;35527;54.616;39.786;2023-04-24T12:31:18;6.47;;;3.03;;
49626;SDS011;35527;54.616;39.786;2023-04-24T12:34:24;7.97;;;3.30;;
49626;SDS011;35527;54.616;39.786;2023-04-24T12:37:32;5.57;;;2.85;;
49626;SDS011;35527;54.616;39.786;2023-04-24T12:40:40;10.27;;;3.60;;
49626;SDS011;35527;54.616;39.786;2023-04-24T12:43:52;8.10;;;3.17;;
49626;SDS011;35527;54.616;39.786;2023-04-24T12:47:03;11.05;;;4.10;;
49626;SDS011;35527;54.616;39.786;2023-04-24T12:50:07;10.93;;;4.53;;
49626;SDS011;35527;54.616;39.786;2023-04-24T12:53:16;8.85;;;3.05;;
49626;SDS011;35527;54.616;39.786;2023-04-24T12:56:19;7.17;;;3.27;;
49626;SDS011;35527;54.616;39.786;2023-04-24T12:59:29;10.50;;;3.10;;
49626;SDS011;35527;54.616;39.786;2023-04-24T13:02:32;9.82;;;3.30;;
49626;SDS011;35527;54.616;39.786;2023-04-24T13:05:37;10.35;;;3.47;;
49626;SDS011;35527;54.616;39.786;2023-04-24T13:08:41;10.98;;;3.42;;
49626;SDS011;35527;54.616;39.786;2023-04-24T13:11:49;7.05;;;2.95;;
49626;SDS011;35527;54.616;39.786;2023-04-24T13:14:55;9.20;;;3.40;;
49626;SDS011;35527;54.616;39.786;2023-04-24T13:18:01;8.32;;;3.03;;
49626;SDS011;35527;54.616;39.786;2023-04-24T13:21:04;13.65;;;4.00;;
49626;SDS011;35527;54.616;39.786;2023-04-24T13:24:11;8.05;;;3.00;;
49626;SDS011;35527;54.616;39.786;2023-04-24T13:27:15;6.20;;;3.08;;
49626;SDS011;35527;54.616;39.786;2023-04-24T13:30:19;6.57;;;2.95;;
49626;SDS011;35527;54.616;39.786;2023-04-24T13:33:23;7.18;;;3.03;;
49626;SDS011;35527;54.616;39.786;2023-04-24T13:36:29;8.68;;;3.22;;
49626;SDS011;35527;54.616;39.786;2023-04-24T13:39:33;8.47;;;3.47;;
49626;SDS011;35527;54.616;39.786;2023-04-24T13:42:38;7.53;;;3.20;;
49626;SDS011;35527;54.616;39.786;2023-04-24T13:45:41;8.85;;;4.40;;
49626;SDS011;35527;54.616;39.786;2023-04-24T13:48:51;12.05;;;3.58;;
49626;SDS011;35527;54.616;39.786;2023-04-24T13:52:02;5.68;;;3.20;;
49626;SDS011;35527;54.616;39.786;2023-04-24T13:55:15;6.68;;;3.20;;
49626;SDS011;35527;54.616;39.786;2023-04-24T13:58:24;9.77;;;4.50;;
49626;SDS011;35527;54.616;39.786;2023-04-24T14:01:29;9.55;;;4.55;;
49626;SDS011;35527;54.616;39.786;2023-04-24T14:04:33;11.55;;;4.40;;
49626;SDS011;35527;54.616;39.786;2023-04-24T14:07:38;9.38;;;4.68;;
49626;SDS011;35527;54.616;39.786;2023-04-24T14:10:40;8.93;;;4.30;;
49626;SDS011;35527;54.616;39.786;2023-04-24T14:13:46;10.00;;;3.88;;
49626;SDS011;35527;54.616;39.786;2023-04-24T14:16:49;13.32;;;3.80;;
49626;SDS011;35527;54.616;39.786;2023-04-24T14:19:56;8.75;;;3.63;;
49626;SDS011;35527;54.616;39.786;2023-04-24T14:23:03;8.88;;;4.68;;
49626;SDS011;35527;54.616;39.786;2023-04-24T14:26:09;11.88;;;4.88;;
49626;SDS011;35527;54.616;39.786;2023-04-24T14:29:15;7.80;;;3.00;;
49626;SDS011;35527;54.616;39.786;2023-04-24T14:32:23;7.85;;;3.13;;
49626;SDS011;35527;54.616;39.786;2023-04-24T14:35:26;9.25;;;4.10;;
49626;SDS011;35527;54.616;39.786;2023-04-24T14:38:32;9.50;;;4.35;;
49626;SDS011;35527;54.616;39.786;2023-04-24T14:41:35;13.95;;;4.95;;
49626;SDS011;35527;54.616;39.786;2023-04-24T14:44:43;11.48;;;4.43;;
49626;SDS011;35527;54.616;39.786;2023-04-24T14:47:50;13.55;;;4.15;;
49626;SDS011;35527;54.616;39.786;2023-04-24T14:50:54;19.13;;;3.45;;
49626;SDS011;35527;54.616;39.786;2023-04-24T14:54:00;22.35;;;3.80;;
49626;SDS011;35527;54.616;39.786;2023-04-24T14:57:03;19.30;;;4.28;;
49626;SDS011;35527;54.616;39.786;2023-04-24T15:00:06;13.18;;;3.17;;
49626;SDS011;35527;54.616;39.786;2023-04-24T15:03:13;13.43;;;3.17;;
49626;SDS011;35527;54.616;39.786;2023-04-24T15:06:18;11.70;;;3.40;;
49626;SDS011;35527;54.616;39.786;2023-04-24T15:09:22;10.32;;;2.70;;
49626;SDS011;35527;54.616;39.786;2023-04-24T15:12:27;12.63;;;3.05;;
49626;SDS011;35527;54.616;39.786;2023-04-24T15:15:33;12.38;;;3.30;;
49626;SDS011;35527;54.616;39.786;2023-04-24T15:18:36;11.25;;;4.45;;
49626;SDS011;35527;54.616;39.786;2023-04-24T15:21:40;13.73;;;7.37;;
49626;SDS011;35527;54.616;39.786;2023-04-24T15:24:47;10.85;;;7.57;;
49626;SDS011;35527;54.616;39.786;2023-04-24T15:27:51;14.85;;;8.48;;
49626;SDS011;35527;54.616;39.786;2023-04-24T15:31:00;14.15;;;8.43;;
49626;SDS011;35527;54.616;39.786;2023-04-24T15:34:07;14.60;;;8.48;;
49626;SDS011;35527;54.616;39.786;2023-04-24T15:37:11;16.40;;;9.10;;
49626;SDS011;35527;54.616;39.786;2023-04-24T15:40:16;18.73;;;8.57;;
49626;SDS011;35527;54.616;39.786;2023-04-24T15:43:20;17.17;;;8.65;;
49626;SDS011;35527;54.616;39.786;2023-04-24T15:46:24;14.30;;;7.63;;
49626;SDS011;35527;54.616;39.786;2023-04-24T15:49:27;16.92;;;6.68;;
49626;SDS011;35527;54.616;39.786;2023-04-24T15:52:31;12.98;;;6.03;;
49626;SDS011;35527;54.616;39.786;2023-04-24T15:55:40;13.68;;;6.57;;
49626;SDS011;35527;54.616;39.786;2023-04-24T15:58:42;18.23;;;7.43;;
49626;SDS011;35527;54.616;39.786;2023-04-24T16:01:46;18.45;;;9.75;;
49626;SDS011;35527;54.616;39.786;2023-04-24T16:04:49;18.30;;;9.32;;
49626;SDS011;35527;54.616;39.786;2023-04-24T16:07:55;19.63;;;8.38;;
49626;SDS011;35527;54.616;39.786;2023-04-24T16:14:05;15.40;;;8.55;;
49626;SDS011;35527;54.616;39.786;2023-04-24T16:17:13;14.60;;;8.80;;
49626;SDS011;35527;54.616;39.786;2023-04-24T16:20:18;17.95;;;9.85;;
49626;SDS011;35527;54.616;39.786;2023-04-24T16:23:21;20.57;;;10.93;;
49626;SDS011;35527;54.616;39.786;2023-04-24T16:26:25;18.33;;;11.85;;
49626;SDS011;35527;54.616;39.786;2023-04-24T16:29:27;20.40;;;12.10;;
49626;SDS011;35527;54.616;39.786;2023-04-24T16:32:32;20.00;;;12.20;;
49626;SDS011;35527;54.616;39.786;2023-04-24T16:40:35;19.92;;;12.95;;
49626;SDS011;35527;54.616;39.786;2023-04-24T16:43:41;24.33;;;13.02;;
49626;SDS011;35527;54.616;39.786;2023-04-24T16:46:43;25.60;;;13.98;;
49626;SDS011;35527;54.616;39.786;2023-04-24T16:49:47;24.38;;;13.88;;
49626;SDS011;35527;54.616;39.786;2023-04-24T16:52:50;23.77;;;13.68;;
49626;SDS011;35527;54.616;39.786;2023-04-24T16:55:54;26.33;;;14.60;;
49626;SDS011;35527;54.616;39.786;2023-04-24T16:58:57;23.17;;;13.07;;
49626;SDS011;35527;54.616;39.786;2023-04-24T17:02:03;24.08;;;15.35;;
49626;SDS011;35527;54.616;39.786;2023-04-24T17:05:06;21.70;;;13.70;;
49626;SDS011;35527;54.616;39.786;2023-04-24T17:08:10;21.42;;;13.88;;
49626;SDS011;35527;54.616;39.786;2023-04-24T17:11:13;20.38;;;12.23;;
49626;SDS011;35527;54.616;39.786;2023-04-24T17:14:17;18.05;;;12.20;;
49626;SDS011;35527;54.616;39.786;2023-04-24T17:17:19;21.90;;;13.75;;
49626;SDS011;35527;54.616;39.786;2023-04-24T17:20:29;19.38;;;14.35;;
49626;SDS011;35527;54.616;39.786;2023-04-24T17:23:32;20.50;;;15.23;;
49626;SDS011;35527;54.616;39.786;2023-04-24T17:26:34;16.75;;;10.85;;
49626;SDS011;35527;54.616;39.786;2023-04-24T17:29:37;16.00;;;9.77;;
49626;SDS011;35527;54.616;39.786;2023-04-24T17:32:46;17.33;;;10.13;;
49626;SDS011;35527;54.616;39.786;2023-04-24T17:35:48;17.50;;;11.73;;
49626;SDS011;35527;54.616;39.786;2023-04-24T17:38:52;18.20;;;12.25;;
49626;SDS011;35527;54.616;39.786;2023-04-24T17:41:56;16.52;;;10.52;;
49626;SDS011;35527;54.616;39.786;2023-04-24T17:45:09;17.30;;;10.70;;
49626;SDS011;35527;54.616;39.786;2023-04-24T17:48:15;14.95;;;7.88;;
49626;SDS011;35527;54.616;39.786;2023-04-24T17:51:22;12.23;;;6.80;;
49626;SDS011;35527;54.616;39.786;2023-04-24T17:54:27;10.20;;;5.47;;
49626;SDS011;35527;54.616;39.786;2023-04-24T17:57:31;9.68;;;5.47;;
49626;SDS011;35527;54.616;39.786;2023-04-24T18:00:34;9.70;;;4.43;;
49626;SDS011;35527;54.616;39.786;2023-04-24T18:03:40;11.52;;;5.07;;
49626;SDS011;35527;54.616;39.786;2023-04-24T18:06:45;11.02;;;4.45;;
49626;SDS011;35527;54.616;39.786;2023-04-24T18:09:48;7.13;;;3.88;;
49626;SDS011;35527;54.616;39.786;2023-04-24T18:12:52;8.63;;;4.47;;
49626;SDS011;35527;54.616;39.786;2023-04-24T18:16:13;9.35;;;4.45;;
49626;SDS011;35527;54.616;39.786;2023-04-24T18:19:18;7.82;;;4.35;;
49626;SDS011;35527;54.616;39.786;2023-04-24T18:22:30;9.40;;;4.40;;
49626;SDS011;35527;54.616;39.786;2023-04-24T18:25:33;9.70;;;5.05;;
49626;SDS011;35527;54.616;39.786;2023-04-24T18:28:39;9.15;;;4.90;;
49626;SDS011;35527;54.616;39.786;2023-04-24T18:31:44;7.90;;;4.60;;
49626;SDS011;35527;54.616;39.786;2023-04-24T18:34:51;12.88;;;4.88;;
49626;SDS011;35527;54.616;39.786;2023-04-24T18:37:54;11.95;;;4.95;;
49626;SDS011;35527;54.616;39.786;2023-04-24T18:40:58;9.65;;;4.07;;
49626;SDS011;35527;54.616;39.786;2023-04-24T18:44:00;10.02;;;4.07;;
49626;SDS011;35527;54.616;39.786;2023-04-24T18:47:04;6.78;;;3.60;;
49626;SDS011;35527;54.616;39.786;2023-04-24T18:50:07;9.25;;;4.10;;